Time;durP1;ratioP1;P1;durP2;ratioP2;P2;SDS_P1;SDS_P2;PMS_P1;PMS_P2;Temp;Humidity;BMP_temperature;BMP_pressure;BME280_temperature;BME280_humidity;BME280_pressure;Samples;Min_cycle;Max_cycle;Signal;HPM_P1;HPM_P2
2021/10/21 06:57:16;;;;;;;4.15;0.85;;;11.00;99.90;;;;;;4150234;27;20408;-68
2021/10/21 06:59:16;;;;;;;7.43;1.23;;;10.90;99.90;;;;;;4159126;28;20643;-68
2021/10/21 07:01:17;;;;;;;6.47;1.23;;;10.90;99.90;;;;;;4166717;28;20396;-68
2021/10/21 07:03:17;;;;;;;6.85;0.70;;;10.90;99.90;;;;;;4164973;28;20025;-69
2021/10/21 07:05:21;;;;;;;1.85;0.68;;;10.90;99.90;;;;;;4164673;28;20603;-68
2021/10/21 07:07:22;;;;;;;6.88;1.13;;;10.90;99.90;;;;;;4165680;28;20029;-68
2021/10/21 07:09:23;;;;;;;4.55;1.10;;;11.00;99.90;;;;;;4166219;28;20063;-68
2021/10/21 07:11:23;;;;;;;7.90;1.73;;;11.00;99.90;;;;;;4164410;28;20052;-69
2021/10/21 07:13:24;;;;;;;8.55;1.50;;;11.00;99.90;;;;;;4162803;28;20041;-68
2021/10/21 07:15:24;;;;;;;12.07;2.28;;;11.00;99.90;;;;;;4162819;28;20033;-69
2021/10/21 07:17:25;;;;;;;9.18;1.60;;;11.10;99.90;;;;;;4161868;28;20385;-69
2021/10/21 07:19:26;;;;;;;10.48;1.90;;;11.10;99.90;;;;;;4165075;28;20043;-69
2021/10/21 07:21:26;;;;;;;5.18;1.17;;;11.10;99.90;;;;;;4166867;28;20037;-69
2021/10/21 07:23:27;;;;;;;9.50;1.85;;;11.20;99.90;;;;;;4167787;28;20063;-69
2021/10/21 07:25:28;;;;;;;3.50;1.40;;;11.20;99.90;;;;;;4168011;28;20516;-69
2021/10/21 07:27:29;;;;;;;8.88;1.45;;;11.20;99.90;;;;;;4160795;28;20394;-69
2021/10/21 07:29:29;;;;;;;3.78;1.20;;;11.30;99.90;;;;;;4161400;28;20132;-69
2021/10/21 07:31:30;;;;;;;6.10;1.88;;;11.30;99.90;;;;;;4164127;28;20033;-69
2021/10/21 07:33:31;;;;;;;8.68;1.73;;;11.30;99.90;;;;;;4155861;28;20080;-68
2021/10/21 07:35:31;;;;;;;10.65;1.70;;;11.40;99.90;;;;;;4149384;28;20054;-69
2021/10/21 07:37:32;;;;;;;9.05;1.70;;;11.40;99.90;;;;;;4166980;28;20041;-69
2021/10/21 07:39:33;;;;;;;8.35;1.85;;;11.40;99.90;;;;;;4165173;28;20037;-69
2021/10/21 07:41:33;;;;;;;8.57;1.90;;;11.50;99.90;;;;;;4166358;28;20021;-69
2021/10/21 07:43:35;;;;;;;7.05;1.33;;;11.50;99.90;;;;;;4166549;28;20042;-69
2021/10/21 07:45:36;;;;;;;8.03;1.70;;;11.50;99.90;;;;;;4165478;28;20117;-69
2021/10/21 07:47:38;;;;;;;7.57;2.03;;;11.50;99.90;;;;;;4164865;28;20030;-68
2021/10/21 07:49:40;;;;;;;;;;;11.50;99.90;;;;;;4167349;28;20539;-68
2021/10/21 07:51:42;;;;;;;5.90;1.50;;;11.50;99.90;;;;;;4164068;28;19928;-69
2021/10/21 07:53:43;;;;;;;10.37;2.00;;;11.50;99.90;;;;;;4166002;28;20044;-68
2021/10/21 07:55:43;;;;;;;10.68;1.77;;;11.50;99.90;;;;;;4163256;28;20284;-68
2021/10/21 07:57:44;;;;;;;8.00;1.60;;;11.50;99.90;;;;;;4167040;28;20120;-69
2021/10/21 07:59:45;;;;;;;10.10;2.13;;;11.50;99.90;;;;;;4166217;28;20025;-68
2021/10/21 08:01:46;;;;;;;9.70;2.28;;;11.50;99.90;;;;;;4166342;28;20029;-68
2021/10/21 08:03:46;;;;;;;10.02;2.00;;;11.60;99.90;;;;;;4165969;28;20037;-68
2021/10/21 08:05:48;;;;;;;9.70;2.00;;;11.60;99.90;;;;;;4169020;28;20059;-68
2021/10/21 08:07:48;;;;;;;5.03;1.38;;;11.60;99.90;;;;;;4160659;28;20609;-68
2021/10/21 08:09:49;;;;;;;8.75;1.90;;;11.60;99.90;;;;;;4155177;28;20049;-68
2021/10/21 08:11:52;;;;;;;6.50;1.65;;;11.60;99.90;;;;;;4155483;28;20148;-68
2021/10/21 08:13:53;;;;;;;9.70;1.73;;;11.60;99.90;;;;;;4153223;28;20041;-68
2021/10/21 08:15:53;;;;;;;9.20;2.20;;;11.60;99.90;;;;;;4153545;28;20056;-68
2021/10/21 08:17:55;;;;;;;6.57;1.67;;;11.60;99.90;;;;;;4151239;28;20516;-68
2021/10/21 08:19:55;;;;;;;7.07;2.50;;;11.60;99.90;;;;;;4148570;28;20033;-68
2021/10/21 08:21:57;;;;;;;13.90;3.10;;;11.60;99.90;;;;;;4156180;28;20076;-68
2021/10/21 08:23:59;;;;;;;9.38;2.80;;;11.70;99.90;;;;;;4156155;28;20040;-68
2021/10/21 08:25:59;;;;;;;12.70;3.23;;;11.70;99.90;;;;;;4158307;28;20501;-68
2021/10/21 08:28:00;;;;;;;28.67;9.73;;;11.70;99.90;;;;;;4152036;28;20135;-68
2021/10/21 08:30:01;;;;;;;6.35;2.47;;;11.70;99.90;;;;;;4154867;28;20043;-68
2021/10/21 08:32:05;;;;;;;11.10;3.15;;;11.80;99.90;;;;;;4157614;28;20080;-68
2021/10/21 08:34:06;;;;;;;13.90;3.03;;;11.80;99.90;;;;;;4156659;28;20547;-68
2021/10/21 08:36:11;;;;;;;11.82;2.95;;;11.80;99.90;;;;;;4155981;28;20038;-68
2021/10/21 08:38:12;;;;;;;16.80;5.20;;;11.80;99.90;;;;;;4153312;28;20045;-68
2021/10/21 08:40:14;;;;;;;11.02;2.63;;;11.90;99.90;;;;;;4152139;28;20112;-68
2021/10/21 08:42:18;;;;;;;14.93;6.00;;;12.10;99.90;;;;;;4153411;28;22578;-68
2021/10/21 08:44:18;;;;;;;11.10;2.70;;;12.30;99.90;;;;;;4154360;28;20029;-69
2021/10/21 08:46:25;;;;;;;12.82;2.92;;;12.50;99.90;;;;;;4157008;28;20474;-68
2021/10/21 08:48:30;;;;;;;13.18;3.17;;;12.60;99.90;;;;;;4149370;28;20034;-68
2021/10/21 08:50:34;;;;;;;9.15;2.45;;;12.70;99.90;;;;;;4149206;28;20794;-68
2021/10/21 08:52:35;;;;;;;10.77;2.47;;;12.90;99.90;;;;;;4155334;28;20113;-68
2021/10/21 08:54:35;;;;;;;12.90;2.47;;;13.00;99.90;;;;;;4152609;28;20489;-68
2021/10/21 08:56:37;;;;;;;10.68;2.58;;;13.20;99.90;;;;;;4155434;28;20041;-68
2021/10/21 08:58:38;;;;;;;10.45;3.75;;;13.30;99.90;;;;;;4152993;28;20363;-68
2021/10/21 09:00:39;;;;;;;10.40;3.05;;;13.30;99.90;;;;;;4151906;28;20072;-68
2021/10/21 09:05:00;;;;;;;16.25;3.58;;;13.50;99.90;;;;;;4180747;28;20037;-68
2021/10/21 09:09:22;;;;;;;16.98;4.68;;;13.60;99.90;;;;;;4155009;28;20029;-68
2021/10/21 09:11:23;;;;;;;13.98;3.25;;;13.60;99.90;;;;;;4152744;28;20374;-68
2021/10/21 09:13:34;;;;;;;7.90;2.25;;;13.60;99.90;;;;;;4153691;28;20104;-68
2021/10/21 09:15:34;;;;;;;10.40;2.22;;;13.50;99.90;;;;;;4152954;28;20394;-68
2021/10/21 09:17:36;;;;;;;13.88;2.50;;;13.50;99.90;;;;;;4151599;28;20056;-68
2021/10/21 09:19:39;;;;;;;8.02;2.55;;;13.50;99.90;;;;;;4152644;28;20201;-68
2021/10/21 09:21:41;;;;;;;15.15;2.63;;;13.40;99.90;;;;;;4153051;28;20042;-68
2021/10/21 09:23:42;;;;;;;9.93;2.28;;;13.40;99.90;;;;;;4154486;28;20112;-68
2021/10/21 09:25:44;;;;;;;8.07;2.00;;;13.30;99.90;;;;;;4155149;28;20083;-68
2021/10/21 09:27:45;;;;;;;11.60;1.98;;;13.30;99.90;;;;;;4151862;28;20515;-68
2021/10/21 09:29:50;;;;;;;8.93;2.45;;;13.30;99.90;;;;;;4152741;28;20041;-68
2021/10/21 09:32:03;;;;;;;9.38;2.20;;;13.40;99.90;;;;;;4150697;28;20029;-68
2021/10/21 09:34:04;;;;;;;6.72;2.03;;;13.50;99.90;;;;;;4152818;28;20041;-68
2021/10/21 09:36:05;;;;;;;12.75;2.03;;;13.50;99.90;;;;;;4154947;28;20088;-68
2021/10/21 09:38:18;;;;;;;5.18;1.52;;;13.50;99.90;;;;;;4152201;28;20037;-68
2021/10/21 09:40:26;;;;;;;12.98;2.38;;;13.50;99.90;;;;;;4151545;28;20061;-68
2021/10/21 09:42:31;;;;;;;9.00;1.98;;;13.50;99.90;;;;;;4154302;28;20038;-68
2021/10/21 09:44:32;;;;;;;9.80;2.20;;;13.50;99.90;;;;;;4153541;28;20048;-68
2021/10/21 09:46:40;;;;;;;9.77;2.40;;;13.60;99.90;;;;;;4151324;28;20339;-68
2021/10/21 09:48:41;;;;;;;8.43;2.03;;;13.60;99.90;;;;;;4149856;28;20091;-68
2021/10/21 09:50:46;;;;;;;6.72;2.15;;;13.60;99.90;;;;;;4153297;28;20033;-68
2021/10/21 09:53:04;;;;;;;11.48;3.05;;;13.50;99.90;;;;;;4153724;28;20037;-68
2021/10/21 09:55:09;;;;;;;8.73;1.98;;;13.50;99.90;;;;;;4144802;28;20554;-68
2021/10/21 09:57:18;;;;;;;7.10;2.00;;;13.30;99.90;;;;;;4150200;28;20049;-68
2021/10/21 09:59:27;;;;;;;10.77;2.40;;;13.30;99.90;;;;;;4151460;28;20037;-68
2021/10/21 10:01:36;;;;;;;9.95;2.13;;;13.20;99.90;;;;;;4156451;28;20104;-68
2021/10/21 10:03:39;;;;;;;7.68;1.92;;;13.10;99.90;;;;;;4154454;28;20041;-68
2021/10/21 10:05:53;;;;;;;7.22;2.05;;;12.90;99.90;;;;;;4155000;28;20047;-68
2021/10/21 10:07:53;;;;;;;4.65;1.70;;;12.80;99.90;;;;;;4151743;28;20502;-68
2021/10/21 10:10:03;;;;;;;6.60;2.05;;;12.70;99.90;;;;;;4154566;28;20120;-68
2021/10/21 10:12:05;;;;;;;9.35;1.80;;;12.60;99.90;;;;;;4152982;28;20494;-68
2021/10/21 10:14:06;;;;;;;8.90;2.20;;;12.50;99.90;;;;;;4150935;28;20553;-68
2021/10/21 10:16:07;;;;;;;10.50;2.30;;;12.50;99.90;;;;;;4154291;28;20044;-68
2021/10/21 10:18:08;;;;;;;5.47;1.75;;;12.50;99.90;;;;;;4154051;28;20036;-69
2021/10/21 10:20:09;;;;;;;7.80;2.00;;;12.50;99.90;;;;;;4152054;28;20321;-68
2021/10/21 10:22:20;;;;;;;5.75;1.52;;;12.50;99.90;;;;;;4151096;28;20704;-68
2021/10/21 10:24:32;;;;;;;6.13;1.55;;;12.50;99.90;;;;;;4149166;28;20029;-68
2021/10/21 10:26:46;;;;;;;5.45;1.45;;;12.50;99.90;;;;;;4152839;28;20119;-69
2021/10/21 10:28:53;;;;;;;7.32;1.63;;;12.50;99.90;;;;;;4152463;28;20034;-68
2021/10/21 10:30:58;;;;;;;8.25;2.00;;;12.50;99.90;;;;;;4145200;28;20041;-68
2021/10/21 10:32:59;;;;;;;5.43;1.85;;;12.40;99.90;;;;;;4151508;28;20485;-68
2021/10/21 10:35:01;;;;;;;9.65;1.40;;;12.40;99.90;;;;;;4152749;28;20034;-68
2021/10/21 10:37:14;;;;;;;10.73;2.63;;;12.40;99.90;;;;;;4152615;28;20041;-68
2021/10/21 10:40:03;;;;;;;3.08;1.13;;;12.30;99.90;;;;;;4152778;28;20039;-68
2021/10/21 10:42:04;;;;;;;9.57;1.33;;;12.40;99.90;;;;;;4159369;28;20036;-68
2021/10/21 10:44:04;;;;;;;6.75;1.40;;;12.40;99.90;;;;;;4151457;28;20037;-68
2021/10/21 10:46:05;;;;;;;4.80;1.30;;;12.40;99.90;;;;;;4151888;28;20040;-68
2021/10/21 10:48:06;;;;;;;4.40;1.30;;;12.40;99.90;;;;;;4149823;28;20565;-68
2021/10/21 10:50:12;;;;;;;4.80;1.48;;;12.40;99.90;;;;;;4153147;28;20060;-68
2021/10/21 10:52:15;;;;;;;6.57;1.33;;;12.40;99.90;;;;;;4153532;28;20041;-68
2021/10/21 10:54:48;;;;;;;3.17;1.05;;;12.40;99.90;;;;;;4152487;28;20033;-68
2021/10/21 10:56:48;;;;;;;4.88;1.10;;;12.40;99.90;;;;;;4151156;28;20040;-68
2021/10/21 10:59:32;;;;;;;4.85;1.27;;;12.50;99.90;;;;;;4151338;28;20289;-68
2021/10/21 11:01:33;;;;;;;;;;;12.50;99.90;;;;;;4141041;28;20058;-68
2021/10/21 11:03:35;;;;;;;3.00;0.77;;;12.50;99.90;;;;;;4152735;28;19913;-69
2021/10/21 11:05:48;;;;;;;6.53;1.30;;;12.50;99.90;;;;;;4152468;28;20041;-68
2021/10/21 11:07:50;;;;;;;3.03;1.00;;;12.50;99.90;;;;;;4177153;28;20542;-68
2021/10/21 11:09:53;;;;;;;9.20;1.70;;;12.60;99.90;;;;;;4151215;28;20118;-68
2021/10/21 11:11:55;;;;;;;3.80;1.00;;;12.60;99.90;;;;;;4152147;28;20136;-68
2021/10/21 11:14:10;;;;;;;4.32;1.00;;;12.60;99.90;;;;;;4151270;28;20053;-68
2021/10/21 11:16:43;;;;;;;7.20;1.02;;;12.70;99.90;;;;;;4153055;28;20116;-68
2021/10/21 11:18:47;;;;;;;4.00;1.02;;;12.70;99.90;;;;;;4139286;28;20033;-68
2021/10/21 11:20:48;;;;;;;5.03;1.20;;;12.70;99.90;;;;;;4149028;28;20029;-68
2021/10/21 11:22:49;;;;;;;2.72;1.00;;;12.70;99.90;;;;;;4148454;28;20029;-68
2021/10/21 11:24:49;;;;;;;4.95;1.15;;;12.70;99.90;;;;;;4150163;28;20042;-68
2021/10/21 11:26:51;;;;;;;6.53;1.10;;;12.60;99.90;;;;;;4151247;28;20034;-68
2021/10/21 11:28:53;;;;;;;7.33;1.23;;;12.60;99.90;;;;;;4150547;28;20413;-68
2021/10/21 11:30:53;;;;;;;3.72;1.08;;;12.50;99.90;;;;;;4153985;28;20162;-68
2021/10/21 11:32:57;;;;;;;7.45;1.40;;;12.50;99.90;;;;;;4153554;28;20488;-68
2021/10/21 11:34:58;;;;;;;1.65;0.73;;;12.40;99.90;;;;;;4152786;28;20061;-68
2021/10/21 11:36:59;;;;;;;2.20;0.75;;;12.30;99.90;;;;;;4150784;28;20380;-68
2021/10/21 11:39:06;;;;;;;4.05;0.88;;;12.20;99.90;;;;;;4151404;28;20582;-68
2021/10/21 11:41:07;;;;;;;4.20;1.00;;;12.20;99.90;;;;;;4148373;28;20107;-68
2021/10/21 11:43:22;;;;;;;2.67;1.30;;;12.20;99.90;;;;;;4154382;28;20125;-68
2021/10/21 11:45:34;;;;;;;2.28;0.77;;;12.10;99.90;;;;;;4154086;28;20095;-68
2021/10/21 11:47:36;;;;;;;5.13;0.95;;;12.10;99.90;;;;;;4151799;28;20073;-68
2021/10/21 11:49:39;;;;;;;;;;;12.10;99.90;;;;;;4154610;28;20025;-68
2021/10/21 11:51:40;;;;;;;1.50;0.60;;;12.00;99.90;;;;;;4153051;28;19962;-68
2021/10/21 11:53:41;;;;;;;5.03;0.70;;;12.00;99.90;;;;;;4152917;28;20037;-68
2021/10/21 11:55:45;;;;;;;3.85;0.82;;;12.10;99.90;;;;;;4155367;28;20038;-68
2021/10/21 11:57:46;;;;;;;7.18;1.17;;;12.00;99.90;;;;;;4149432;28;20042;-68
2021/10/21 11:59:46;;;;;;;1.27;0.60;;;12.00;99.90;;;;;;4150312;28;20481;-68
2021/10/21 12:01:48;;;;;;;5.95;1.23;;;12.00;99.90;;;;;;4155816;28;20034;-68
2021/10/21 12:03:51;;;;;;;1.57;0.70;;;12.00;99.90;;;;;;4155481;28;20412;-68
2021/10/21 12:05:52;;;;;;;0.93;0.60;;;12.00;99.90;;;;;;4152972;28;20042;-68
2021/10/21 12:07:55;;;;;;;3.33;0.88;;;12.00;99.90;;;;;;4180336;28;20503;-68
2021/10/21 12:09:56;;;;;;;4.28;1.05;;;12.00;99.90;;;;;;4150441;28;20038;-68
2021/10/21 12:12:16;;;;;;;2.05;0.60;;;12.00;99.90;;;;;;4155860;28;20381;-68
2021/10/21 12:14:17;;;;;;;4.35;1.02;;;12.10;99.90;;;;;;4179944;28;20065;-68
2021/10/21 12:16:20;;;;;;;3.28;1.50;;;12.20;99.90;;;;;;4154677;28;20520;-68
2021/10/21 12:18:23;;;;;;;5.88;1.30;;;12.10;99.90;;;;;;4154421;28;20409;-68
2021/10/21 12:20:30;;;;;;;4.78;1.13;;;12.20;99.90;;;;;;4155591;28;20643;-68
2021/10/21 12:22:36;;;;;;;2.13;0.80;;;12.20;99.90;;;;;;4153920;28;20076;-68
2021/10/21 12:24:39;;;;;;;2.67;1.00;;;12.10;99.90;;;;;;4153362;28;20136;-68
2021/10/21 12:26:39;;;;;;;5.10;1.10;;;12.10;99.90;;;;;;4151695;28;20041;-68
2021/10/21 12:28:51;;;;;;;3.28;0.57;;;12.10;99.90;;;;;;4152990;28;20106;-67
2021/10/21 12:30:52;;;;;;;6.53;1.10;;;12.00;99.90;;;;;;4151162;28;20051;-68
2021/10/21 12:33:18;;;;;;;3.10;0.80;;;12.00;99.90;;;;;;4155091;28;20069;-68
2021/10/21 12:35:19;;;;;;;3.75;0.70;;;11.90;99.90;;;;;;4152119;28;20026;-68
2021/10/21 12:37:26;;;;;;;1.48;0.70;;;12.00;99.90;;;;;;4153533;28;20044;-68
2021/10/21 12:39:32;;;;;;;3.78;0.80;;;12.10;99.90;;;;;;4154915;28;20033;-68
2021/10/21 12:41:52;;;;;;;5.65;1.00;;;12.10;99.90;;;;;;4155985;28;20042;-67
2021/10/21 12:44:04;;;;;;;2.05;0.50;;;12.00;99.90;;;;;;4150323;28;20044;-67
2021/10/21 12:46:27;;;;;;;0.80;0.55;;;12.00;99.90;;;;;;4154434;28;20021;-68
2021/10/21 12:48:34;;;;;;;3.10;1.42;;;12.00;99.90;;;;;;4155953;28;20025;-69
2021/10/21 12:50:35;;;;;;;4.68;1.10;;;12.00;99.90;;;;;;4152927;28;20041;-69
2021/10/21 12:52:38;;;;;;;3.85;2.78;;;12.00;99.90;;;;;;4154583;28;20332;-69
2021/10/21 12:54:39;;;;;;;3.65;1.27;;;12.00;99.90;;;;;;4149405;28;20116;-69
2021/10/21 12:56:54;;;;;;;3.10;1.15;;;12.00;99.90;;;;;;4152396;28;20049;-69
2021/10/21 12:59:00;;;;;;;3.67;0.95;;;12.00;99.90;;;;;;4152860;28;20532;-69
2021/10/21 13:01:01;;;;;;;2.72;1.08;;;12.00;99.90;;;;;;4152816;28;20481;-69
2021/10/21 13:03:02;;;;;;;4.80;1.10;;;12.10;99.90;;;;;;4154560;28;20107;-69
2021/10/21 13:05:04;;;;;;;6.07;1.52;;;12.10;99.90;;;;;;4153173;28;20029;-69
2021/10/21 13:07:05;;;;;;;5.50;1.13;;;12.10;99.90;;;;;;4154338;28;20205;-69
2021/10/21 13:09:06;;;;;;;6.28;1.20;;;12.00;99.90;;;;;;4150889;28;20417;-69
2021/10/21 13:11:08;;;;;;;2.38;0.80;;;11.80;99.90;;;;;;4152071;28;20033;-69
2021/10/21 13:13:19;;;;;;;2.85;0.60;;;11.70;99.90;;;;;;4152551;28;20477;-68
2021/10/21 13:15:20;;;;;;;1.13;0.40;;;11.60;99.90;;;;;;4154227;28;20069;-69
2021/10/21 13:17:21;;;;;;;2.05;0.60;;;11.50;99.90;;;;;;4148102;28;20146;-69
2021/10/21 13:19:22;;;;;;;2.08;0.45;;;11.40;99.90;;;;;;4153235;28;20045;-69
2021/10/21 13:21:23;;;;;;;1.75;0.50;;;11.40;99.90;;;;;;4152184;28;20040;-69
2021/10/21 13:23:23;;;;;;;1.58;0.38;;;11.40;99.90;;;;;;4151157;28;20775;-69
2021/10/21 13:25:24;;;;;;;1.77;0.35;;;11.40;99.90;;;;;;4153522;28;20040;-69
2021/10/21 13:27:24;;;;;;;0.57;0.30;;;11.30;99.90;;;;;;4153042;28;20033;-69
2021/10/21 13:29:25;;;;;;;1.40;0.30;;;11.30;99.90;;;;;;4152490;28;20057;-69
2021/10/21 13:31:26;;;;;;;0.70;0.40;;;11.20;99.90;;;;;;4146683;28;20049;-69
2021/10/21 13:33:27;;;;;;;2.58;0.40;;;11.20;99.90;;;;;;4149357;28;20576;-69
2021/10/21 13:35:27;;;;;;;3.10;0.50;;;11.10;99.90;;;;;;4148455;28;20570;-69
2021/10/21 13:37:28;;;;;;;0.90;0.43;;;11.10;99.90;;;;;;4149004;28;20136;-69
2021/10/21 13:39:29;;;;;;;0.80;0.30;;;11.10;99.90;;;;;;4148288;28;20149;-69
2021/10/21 13:41:29;;;;;;;2.42;0.60;;;11.20;99.90;;;;;;4148841;28;20393;-69
2021/10/21 13:43:30;;;;;;;2.60;0.50;;;11.30;99.90;;;;;;4150614;28;20556;-69
2021/10/21 13:45:31;;;;;;;2.05;0.50;;;11.30;99.90;;;;;;4171131;28;20091;-69
2021/10/21 13:47:31;;;;;;;1.10;0.28;;;11.40;99.90;;;;;;4150176;28;20053;-69
2021/10/21 13:49:32;;;;;;;1.60;0.40;;;11.40;99.90;;;;;;4149150;28;20515;-69
2021/10/21 13:51:33;;;;;;;2.40;0.65;;;11.40;99.90;;;;;;4146859;28;20049;-69
2021/10/21 13:53:33;;;;;;;1.58;0.50;;;11.50;99.90;;;;;;4173581;28;20427;-69
2021/10/21 13:55:34;;;;;;;1.17;0.47;;;11.50;99.90;;;;;;4146053;28;20049;-69
2021/10/21 13:57:35;;;;;;;2.53;0.50;;;11.50;99.90;;;;;;4148253;28;20056;-69
2021/10/21 13:59:36;;;;;;;1.85;0.50;;;11.60;99.90;;;;;;4149564;28;20145;-69
2021/10/21 14:01:37;;;;;;;0.75;0.50;;;11.60;99.90;;;;;;4147579;28;20421;-69
2021/10/21 14:03:38;;;;;;;1.42;0.63;;;11.60;99.90;;;;;;4150166;28;20432;-69
2021/10/21 14:05:39;;;;;;;1.35;0.50;;;11.60;99.90;;;;;;4148659;28;20029;-69
2021/10/21 14:07:40;;;;;;;2.53;0.80;;;11.60;99.90;;;;;;4146634;28;20064;-69
2021/10/21 14:09:41;;;;;;;2.78;1.00;;;11.70;99.90;;;;;;4149012;28;20094;-69
2021/10/21 14:11:42;;;;;;;1.65;0.50;;;11.70;99.90;;;;;;4148144;28;20049;-69
2021/10/21 14:13:42;;;;;;;3.40;0.60;;;11.70;99.90;;;;;;4170233;28;20044;-69
2021/10/21 14:15:43;;;;;;;1.05;0.50;;;11.70;99.90;;;;;;4147439;28;20049;-69
2021/10/21 14:17:43;;;;;;;0.73;0.40;;;11.70;99.90;;;;;;4148244;28;20452;-69
2021/10/21 14:19:44;;;;;;;1.70;0.40;;;11.80;99.90;;;;;;4149242;28;20029;-69
2021/10/21 14:21:47;;;;;;;2.33;0.60;;;11.80;99.90;;;;;;4147797;28;20051;-69
2021/10/21 14:23:47;;;;;;;2.17;0.63;;;11.70;99.90;;;;;;4149425;28;20108;-69
2021/10/21 14:25:48;;;;;;;2.63;0.85;;;11.70;99.90;;;;;;4148684;28;20493;-70
2021/10/21 14:27:49;;;;;;;3.78;0.80;;;11.80;99.90;;;;;;4149287;28;20057;-69
2021/10/21 14:29:50;;;;;;;1.52;0.52;;;11.80;99.90;;;;;;4148484;28;20041;-69
2021/10/21 14:31:51;;;;;;;3.95;0.77;;;11.70;99.90;;;;;;4147139;28;20049;-71
2021/10/21 14:33:52;;;;;;;3.78;0.73;;;11.70;99.90;;;;;;4149240;28;20037;-69
2021/10/21 14:35:53;;;;;;;5.07;1.05;;;11.80;99.90;;;;;;4148147;28;20088;-69
2021/10/21 14:37:53;;;;;;;3.95;0.90;;;11.80;99.90;;;;;;4147463;28;20443;-69
2021/10/21 14:39:54;;;;;;;4.93;0.75;;;11.70;99.90;;;;;;4148433;28;20040;-70
2021/10/21 14:41:55;;;;;;;4.35;1.20;;;11.80;99.90;;;;;;4147220;28;20141;-69
2021/10/21 14:43:57;;;;;;;4.43;1.15;;;11.80;99.90;;;;;;4148702;28;20446;-69
2021/10/21 14:45:58;;;;;;;6.93;1.17;;;11.80;99.90;;;;;;4147263;28;20841;-69
2021/10/21 14:47:58;;;;;;;6.28;1.40;;;11.80;99.90;;;;;;4148373;28;20195;-69
2021/10/21 14:49:59;;;;;;;1.98;0.90;;;11.80;99.90;;;;;;4148233;28;20112;-70
2021/10/21 14:52:00;;;;;;;4.38;1.27;;;11.80;99.90;;;;;;4148065;28;20041;-70
2021/10/21 14:54:02;;;;;;;2.28;1.00;;;11.80;99.90;;;;;;4148335;28;20044;-70
2021/10/21 14:56:03;;;;;;;4.70;0.93;;;11.70;99.90;;;;;;4148046;28;20194;-70
2021/10/21 14:58:04;;;;;;;2.65;0.80;;;11.50;99.90;;;;;;4148970;28;20525;-70
2021/10/21 15:00:06;;;;;;;4.88;1.08;;;11.30;99.90;;;;;;4146404;28;20137;-70
2021/10/21 15:02:08;;;;;;;7.43;1.63;;;11.10;99.90;;;;;;4147212;28;20267;-70
2021/10/21 15:04:09;;;;;;;5.00;0.80;;;10.90;99.90;;;;;;4146976;28;20380;-70
2021/10/21 15:06:33;;;;;;;2.92;0.68;;;10.80;99.90;;;;;;4156832;28;20264;-70
2021/10/21 15:08:59;;;;;;;3.85;0.88;;;10.60;99.90;;;;;;4148860;28;20497;-70
2021/10/21 15:22:41;;;;;;;4.40;1.02;;;10.30;99.90;;;;;;4150133;28;20149;-70
2021/10/21 15:24:42;;;;;;;4.32;0.95;;;10.20;99.90;;;;;;4151780;28;20412;-70
2021/10/21 15:26:42;;;;;;;2.92;0.70;;;10.30;99.90;;;;;;4149971;28;20042;-70
2021/10/21 15:28:43;;;;;;;3.45;1.05;;;10.40;99.90;;;;;;4152073;28;20041;-69
2021/10/21 15:30:44;;;;;;;4.30;0.73;;;10.40;99.90;;;;;;4151267;28;20034;-70
2021/10/21 15:32:44;;;;;;;3.83;0.70;;;10.50;99.90;;;;;;4149487;28;20053;-70
2021/10/21 15:34:45;;;;;;;6.68;1.33;;;10.50;99.90;;;;;;4152411;28;20420;-70
2021/10/21 15:36:47;;;;;;;3.90;0.77;;;10.50;99.90;;;;;;4149909;28;20047;-70
2021/10/21 15:38:56;;;;;;;3.13;0.70;;;10.50;99.90;;;;;;4152045;28;20043;-70
2021/10/21 15:40:56;;;;;;;4.25;1.10;;;10.50;99.90;;;;;;4151345;28;20551;-71
2021/10/21 15:42:58;;;;;;;3.40;1.10;;;10.50;99.90;;;;;;4150588;28;20049;-69
2021/10/21 15:47:28;;;;;;;3.20;1.00;;;10.50;99.90;;;;;;4150587;28;20049;-70
2021/10/21 16:10:26;;;;;;;2.55;0.85;;;10.70;99.90;;;;;;4149121;28;20033;-69
2021/10/21 16:12:28;;;;;;;1.70;0.70;;;10.70;99.90;;;;;;4150216;28;20378;-70
2021/10/21 16:14:35;;;;;;;4.10;0.90;;;10.70;99.90;;;;;;4151456;28;20041;-69
2021/10/21 16:16:36;;;;;;;3.70;0.88;;;10.70;99.90;;;;;;4149801;28;20459;-69
2021/10/21 16:18:37;;;;;;;2.15;0.95;;;10.70;99.90;;;;;;4150883;28;20068;-69
2021/10/21 16:20:42;;;;;;;2.95;0.57;;;10.70;99.90;;;;;;4148898;28;20120;-70
2021/10/21 16:27:33;;;;;;;2.35;0.70;;;10.70;99.90;;;;;;4150755;28;20067;-69
2021/10/21 16:29:34;;;;;;;2.60;0.73;;;10.80;99.90;;;;;;4150263;28;20152;-69
2021/10/21 16:31:34;;;;;;;3.40;0.90;;;10.80;99.90;;;;;;4150658;28;20725;-69
2021/10/21 16:33:35;;;;;;;6.20;0.90;;;10.80;99.90;;;;;;4149202;28;20437;-69
2021/10/21 16:35:38;;;;;;;2.63;0.93;;;10.80;99.90;;;;;;4150796;28;20076;-69
2021/10/21 16:37:39;;;;;;;2.05;0.70;;;10.70;99.90;;;;;;4150413;28;20164;-69
2021/10/21 16:39:40;;;;;;;2.70;0.60;;;10.80;99.90;;;;;;4151890;28;20438;-69
2021/10/21 16:41:41;;;;;;;1.25;0.80;;;10.80;99.90;;;;;;4150138;28;20117;-69
2021/10/21 16:43:42;;;;;;;1.05;0.40;;;10.80;99.90;;;;;;4149106;28;20057;-69
2021/10/21 16:45:44;;;;;;;2.42;0.95;;;10.80;99.90;;;;;;4150323;28;20465;-70
2021/10/21 16:47:44;;;;;;;3.13;1.03;;;10.80;99.90;;;;;;4149562;28;20037;-70
2021/10/21 16:49:45;;;;;;;3.17;0.90;;;10.80;99.90;;;;;;4149083;28;20047;-70
2021/10/21 16:51:46;;;;;;;1.67;0.98;;;10.80;99.90;;;;;;4150477;28;20619;-70
2021/10/21 16:53:47;;;;;;;2.47;0.73;;;10.80;99.90;;;;;;4149907;28;20496;-70
2021/10/21 16:55:47;;;;;;;2.05;0.73;;;10.80;99.90;;;;;;4148454;28;20412;-70
2021/10/21 16:57:48;;;;;;;3.45;1.20;;;10.90;99.90;;;;;;4150177;28;20041;-70
2021/10/21 16:59:50;;;;;;;5.80;1.05;;;10.90;99.90;;;;;;4148206;28;20029;-70
2021/10/21 17:01:51;;;;;;;6.30;1.10;;;10.90;99.90;;;;;;4150722;28;20108;-70
2021/10/21 17:03:52;;;;;;;5.45;1.33;;;10.90;99.90;;;;;;4151241;28;20292;-70
2021/10/21 17:05:53;;;;;;;4.53;1.38;;;10.90;99.90;;;;;;4149797;28;20083;-70
2021/10/21 17:07:53;;;;;;;3.65;1.13;;;11.00;99.90;;;;;;4149058;28;20082;-70
2021/10/21 17:09:55;;;;;;;2.90;0.98;;;11.00;99.90;;;;;;4147587;28;20503;-70
2021/10/21 17:11:56;;;;;;;3.10;0.77;;;11.00;99.90;;;;;;4149417;28;20124;-69
2021/10/21 17:13:57;;;;;;;2.40;0.82;;;11.00;99.90;;;;;;4149306;28;20398;-69
2021/10/21 17:15:58;;;;;;;3.38;1.48;;;11.00;99.90;;;;;;4149795;28;20031;-70
2021/10/21 17:17:58;;;;;;;6.93;1.70;;;11.00;99.90;;;;;;4149561;28;20591;-70
2021/10/21 17:19:59;;;;;;;3.55;1.42;;;11.10;99.90;;;;;;4150040;28;20898;-69
2021/10/21 17:22:00;;;;;;;3.15;1.30;;;11.10;99.90;;;;;;4151352;28;20048;-70
2021/10/21 17:24:01;;;;;;;3.38;1.20;;;11.00;99.90;;;;;;4149277;28;20038;-69
2021/10/21 17:26:03;;;;;;;5.10;1.70;;;11.10;99.90;;;;;;4148265;28;20049;-69
2021/10/21 17:28:05;;;;;;;7.45;1.73;;;11.00;99.90;;;;;;4151118;28;20041;-69
2021/10/21 17:30:06;;;;;;;5.50;1.70;;;10.90;99.90;;;;;;4154310;28;20401;-69
2021/10/21 17:32:07;;;;;;;7.68;1.83;;;10.90;99.90;;;;;;4154920;28;20034;-70
2021/10/21 17:34:08;;;;;;;8.57;2.60;;;10.90;99.90;;;;;;4153804;28;20042;-69
2021/10/21 17:36:09;;;;;;;6.10;1.80;;;10.80;99.90;;;;;;4151201;28;20088;-69
2021/10/21 17:38:09;;;;;;;6.57;1.80;;;10.80;99.90;;;;;;4152639;28;20389;-69
2021/10/21 17:40:12;;;;;;;7.60;2.13;;;10.80;99.90;;;;;;4151959;28;20539;-70
2021/10/21 17:42:12;;;;;;;11.68;2.28;;;10.80;99.90;;;;;;4153031;28;20473;-69
2021/10/21 17:44:13;;;;;;;15.18;2.47;;;10.70;99.90;;;;;;4153097;28;20132;-69
2021/10/21 17:46:14;;;;;;;11.07;2.38;;;10.70;99.90;;;;;;4152276;28;20025;-70
2021/10/21 17:48:15;;;;;;;7.40;1.98;;;10.60;99.90;;;;;;4150620;28;20041;-69
2021/10/21 17:50:15;;;;;;;12.50;3.00;;;10.60;99.90;;;;;;4149533;28;20033;-69
2021/10/21 17:52:17;;;;;;;10.25;2.45;;;10.60;99.90;;;;;;4150316;28;21028;-69
2021/10/21 17:54:18;;;;;;;13.45;2.97;;;10.60;99.90;;;;;;4153009;28;20519;-69
2021/10/21 17:56:18;;;;;;;13.30;3.03;;;10.60;99.90;;;;;;4151332;28;20041;-70
2021/10/21 17:58:22;;;;;;;10.70;3.05;;;10.50;99.90;;;;;;4152205;28;20444;-69
2021/10/21 18:00:22;;;;;;;11.15;2.60;;;10.40;99.90;;;;;;4149344;28;20497;-70
2021/10/21 18:02:23;;;;;;;11.27;2.53;;;10.40;99.90;;;;;;4153544;28;20071;-69
2021/10/21 18:04:24;;;;;;;11.57;2.80;;;10.40;99.90;;;;;;4152688;28;20347;-70
2021/10/21 18:06:25;;;;;;;14.93;3.05;;;10.40;99.90;;;;;;4150850;28;20140;-70
2021/10/21 18:08:26;;;;;;;14.27;3.30;;;10.40;99.90;;;;;;4179855;28;20047;-70
2021/10/21 18:10:26;;;;;;;11.63;3.13;;;10.40;99.90;;;;;;4149979;28;20132;-70
2021/10/21 18:12:27;;;;;;;16.05;3.47;;;10.40;99.90;;;;;;4151012;28;20026;-70
2021/10/21 18:14:27;;;;;;;12.65;2.97;;;10.30;99.90;;;;;;4150510;28;20044;-70
2021/10/21 18:16:28;;;;;;;13.43;3.17;;;10.40;99.90;;;;;;4152476;28;20036;-69
2021/10/21 18:18:29;;;;;;;17.38;3.97;;;10.30;99.90;;;;;;4150788;28;20033;-70
2021/10/21 18:20:30;;;;;;;13.80;3.65;;;10.30;99.90;;;;;;4155247;28;20034;-69